Terminal Aerodrome Forecast
Issued by NWS Billings, MT

Home | Current Version | Previous Version | Text Only | Print | Product List | Glossary On
Versions: 1 2 3 4 5 6 7 8 9 10 11 12 13 14 15 16 17 18 19 20 21 22 23 24
000
FTUS45 KBYZ 271725
TAFSHR
TAF
KSHR 271725Z 2718/2818 35009KT P6SM SCT200
     FM272200 27011KT P6SM VCTS SCT090CB SCT180
     FM280300 VRB06KT P6SM FEW100=

USA.gov is the U.S. government's official web portal to all federal, state and local government web resources and services.